Overview Statistics Trail Chart Weather Telemetry Raw packets
 

This is the latest recevied weather packets stored in our database for station/object IZ2MHJ-3. If no packets are shown the sender has not sent any weather packets the latest 10 day(s).

<< 25 26 27 28 29 >>
Time Temp. Humidity Pressure Rain* Wind** Luminosity Snow
1787756401 33.33° C 47% 1016.4 hPa - - - -
1787755200 33.33° C 47% 1016.9 hPa - - - -
1787754000 32.78° C 47% 1017.1 hPa - - - -
1787752800 34.44° C 45% 1016.9 hPa - - - -
1787751599 33.89° C 46% 1017.3 hPa - - - -
1787750399 35.56° C 44% 1017.2 hPa - - - -
1787749199 33.89° C 45% 1017.3 hPa - - - -
1787747998 35.56° C 42% 1017.4 hPa - - - -
1787746798 35° C 44% 1017.4 hPa - - - -
1787745597 32.78° C 49% 1018.1 hPa - - - -
1787744396 31.11° C 53% 1018.3 hPa - - - -
1787743196 33.89° C 47% 1018.1 hPa - - - -
1787742881 32.78° C 48% 1018.1 hPa - - - -
1787741681 35° C 45% 1018.1 hPa - - - -
1787740481 33.89° C 46% 1018.3 hPa - - - -
1787740268 33.33° C 47% 1018.4 hPa - - - -
1787739068 30.56° C 54% 1018.6 hPa - - - -
1787737868 31.11° C 52% 1018.7 hPa - - - -
1787736667 30° C 56% 1018.6 hPa - - - -
1787735467 30° C 53% 1018.8 hPa - - - -
1787734266 28.89° C 56% 1018.9 hPa - - - -
1787733066 26.67° C 62% 1019 hPa - - - -
1787731866 26.11° C 65% 1018.9 hPa - - - -
1787730665 26.67° C 64% 1018.8 hPa - - - -
1787729465 28.33° C 62% 1018.6 hPa - - - -

* Rain since midnight (hover to see other rain measurements)
** Current wind speed in m/s (hover to see current wind gust speed)